sensor_id;sensor_type;location;lat;lon;timestamp;pressure;altitude;pressure_sealevel;temperature;humidity
70900;BME280;67902;52.154;5.430;2023-03-05T00:01:18;102354.00;;;4.38;80.31
70900;BME280;67902;52.154;5.430;2023-03-05T00:03:45;102353.34;;;4.36;81.26
70900;BME280;67902;52.154;5.430;2023-03-05T00:06:14;102348.31;;;4.33;80.82
70900;BME280;67902;52.154;5.430;2023-03-05T00:08:42;102343.63;;;4.35;80.46
70900;BME280;67902;52.154;5.430;2023-03-05T00:11:11;102343.78;;;4.34;80.25
70900;BME280;67902;52.154;5.430;2023-03-05T00:13:38;102339.44;;;4.33;80.81
70900;BME280;67902;52.154;5.430;2023-03-05T00:16:08;102341.13;;;4.34;80.88
70900;BME280;67902;52.154;5.430;2023-03-05T00:18:35;102334.38;;;4.30;80.48
70900;BME280;67902;52.154;5.430;2023-03-05T00:21:02;102335.25;;;4.30;80.18
70900;BME280;67902;52.154;5.430;2023-03-05T00:23:29;102329.88;;;4.30;81.07
70900;BME280;67902;52.154;5.430;2023-03-05T00:26:00;102330.72;;;4.31;80.83
70900;BME280;67902;52.154;5.430;2023-03-05T00:28:26;102333.59;;;4.29;80.83
70900;BME280;67902;52.154;5.430;2023-03-05T00:30:53;102333.59;;;4.29;80.76
70900;BME280;67902;52.154;5.430;2023-03-05T00:33:19;102328.88;;;4.23;80.56
70900;BME280;67902;52.154;5.430;2023-03-05T00:35:46;102325.03;;;4.18;80.74
70900;BME280;67902;52.154;5.430;2023-03-05T00:38:12;102322.16;;;4.11;80.37
70900;BME280;67902;52.154;5.430;2023-03-05T00:40:40;102320.97;;;4.05;81.17
70900;BME280;67902;52.154;5.430;2023-03-05T00:43:07;102321.31;;;4.02;81.18
70900;BME280;67902;52.154;5.430;2023-03-05T00:45:33;102320.63;;;4.00;80.96
70900;BME280;67902;52.154;5.430;2023-03-05T00:48:01;102321.63;;;3.99;80.77
70900;BME280;67902;52.154;5.430;2023-03-05T00:50:27;102318.28;;;3.97;81.10
70900;BME280;67902;52.154;5.430;2023-03-05T00:52:54;102312.06;;;3.97;81.39
70900;BME280;67902;52.154;5.430;2023-03-05T00:55:20;102313.44;;;4.01;81.88
70900;BME280;67902;52.154;5.430;2023-03-05T00:57:47;102309.72;;;4.02;81.57
70900;BME280;67902;52.154;5.430;2023-03-05T01:00:14;102309.41;;;3.97;81.66
70900;BME280;67902;52.154;5.430;2023-03-05T01:02:41;102303.19;;;3.96;81.93
70900;BME280;67902;52.154;5.430;2023-03-05T01:05:12;102307.03;;;3.94;81.90
70900;BME280;67902;52.154;5.430;2023-03-05T01:07:39;102299.50;;;3.89;82.22
70900;BME280;67902;52.154;5.430;2023-03-05T01:10:09;102308.41;;;3.90;82.54
70900;BME280;67902;52.154;5.430;2023-03-05T01:12:37;102297.69;;;3.90;82.64
70900;BME280;67902;52.154;5.430;2023-03-05T01:15:04;102300.03;;;3.93;82.31
70900;BME280;67902;52.154;5.430;2023-03-05T01:17:31;102292.97;;;3.92;82.77
70900;BME280;67902;52.154;5.430;2023-03-05T01:19:57;102285.59;;;3.94;82.99
70900;BME280;67902;52.154;5.430;2023-03-05T01:22:23;102284.75;;;3.93;82.55
70900;BME280;67902;52.154;5.430;2023-03-05T01:24:50;102276.59;;;3.95;82.92
70900;BME280;67902;52.154;5.430;2023-03-05T01:27:16;102276.59;;;3.95;82.63
70900;BME280;67902;52.154;5.430;2023-03-05T01:29:43;102278.59;;;3.93;83.23
70900;BME280;67902;52.154;5.430;2023-03-05T01:32:09;102269.03;;;3.90;83.02
70900;BME280;67902;52.154;5.430;2023-03-05T01:34:36;102267.88;;;3.93;82.92
70900;BME280;67902;52.154;5.430;2023-03-05T01:37:03;102270.69;;;3.91;83.14
70900;BME280;67902;52.154;5.430;2023-03-05T01:39:29;102263.84;;;3.97;83.21
70900;BME280;67902;52.154;5.430;2023-03-05T01:41:55;102263.50;;;4.00;82.82
70900;BME280;67902;52.154;5.430;2023-03-05T01:44:25;102254.13;;;3.96;82.47
70900;BME280;67902;52.154;5.430;2023-03-05T01:46:51;102251.44;;;3.96;82.63
70900;BME280;67902;52.154;5.430;2023-03-05T01:49:22;102251.81;;;3.93;82.40
70900;BME280;67902;52.154;5.430;2023-03-05T01:51:57;102251.81;;;3.93;82.82
70900;BME280;67902;52.154;5.430;2023-03-05T01:54:40;102242.41;;;3.89;82.49
70900;BME280;67902;52.154;5.430;2023-03-05T01:57:13;102237.03;;;3.89;82.73
70900;BME280;67902;52.154;5.430;2023-03-05T01:59:42;102226.31;;;3.89;82.53
70900;BME280;67902;52.154;5.430;2023-03-05T02:02:10;102226.31;;;3.89;83.05
70900;BME280;67902;52.154;5.430;2023-03-05T02:04:58;102219.28;;;3.88;82.43
70900;BME280;67902;52.154;5.430;2023-03-05T02:07:26;102216.28;;;3.91;83.06
70900;BME280;67902;52.154;5.430;2023-03-05T02:09:53;102213.59;;;3.91;82.87
70900;BME280;67902;52.154;5.430;2023-03-05T02:12:19;102211.75;;;3.91;82.71
70900;BME280;67902;52.154;5.430;2023-03-05T02:14:48;102209.91;;;3.92;82.98
70900;BME280;67902;52.154;5.430;2023-03-05T02:17:16;102203.38;;;3.94;82.44
70900;BME280;67902;52.154;5.430;2023-03-05T02:22:15;102194.84;;;3.91;82.06
70900;BME280;67902;52.154;5.430;2023-03-05T02:24:42;102187.50;;;3.93;82.37
70900;BME280;67902;52.154;5.430;2023-03-05T02:27:11;102186.13;;;3.89;82.33
70900;BME280;67902;52.154;5.430;2023-03-05T02:29:41;102181.78;;;3.88;81.92
70900;BME280;67902;52.154;5.430;2023-03-05T02:32:08;102183.13;;;3.84;81.98
70900;BME280;67902;52.154;5.430;2023-03-05T02:34:35;102183.13;;;3.84;82.26
70900;BME280;67902;52.154;5.430;2023-03-05T02:37:02;102177.06;;;3.82;81.91
70900;BME280;67902;52.154;5.430;2023-03-05T02:39:30;102176.59;;;3.78;82.08
70900;BME280;67902;52.154;5.430;2023-03-05T02:41:57;102172.22;;;3.77;82.09
70900;BME280;67902;52.154;5.430;2023-03-05T02:44:23;102172.22;;;3.77;82.60
70900;BME280;67902;52.154;5.430;2023-03-05T02:46:49;102169.41;;;3.79;82.75
70900;BME280;67902;52.154;5.430;2023-03-05T02:49:16;102163.34;;;3.77;82.27
70900;BME280;67902;52.154;5.430;2023-03-05T02:51:42;102160.34;;;3.80;82.72
70900;BME280;67902;52.154;5.430;2023-03-05T02:54:09;102159.16;;;3.82;82.42
70900;BME280;67902;52.154;5.430;2023-03-05T02:56:35;102152.97;;;3.82;82.17
70900;BME280;67902;52.154;5.430;2023-03-05T02:59:03;102155.66;;;3.82;82.44
70900;BME280;67902;52.154;5.430;2023-03-05T03:01:29;102152.31;;;3.80;82.11
70900;BME280;67902;52.154;5.430;2023-03-05T03:03:56;102151.97;;;3.75;82.54
70900;BME280;67902;52.154;5.430;2023-03-05T03:06:22;102138.78;;;3.73;82.74
70900;BME280;67902;52.154;5.430;2023-03-05T03:08:49;102142.09;;;3.75;83.08
70900;BME280;67902;52.154;5.430;2023-03-05T03:11:15;102134.22;;;3.74;83.20
70900;BME280;67902;52.154;5.430;2023-03-05T03:13:43;102137.22;;;3.71;83.48
70900;BME280;67902;52.154;5.430;2023-03-05T03:16:12;102131.41;;;3.67;83.43
70900;BME280;67902;52.154;5.430;2023-03-05T03:18:41;102119.84;;;3.67;83.45
70900;BME280;67902;52.154;5.430;2023-03-05T03:21:19;102120.00;;;3.65;84.03
70900;BME280;67902;52.154;5.430;2023-03-05T03:23:46;102121.84;;;3.65;84.16
70900;BME280;67902;52.154;5.430;2023-03-05T03:26:12;102121.16;;;3.63;84.69
70900;BME280;67902;52.154;5.430;2023-03-05T03:28:39;102111.81;;;3.59;84.43
70900;BME280;67902;52.154;5.430;2023-03-05T03:31:05;102117.31;;;3.57;84.49
70900;BME280;67902;52.154;5.430;2023-03-05T03:33:32;102113.78;;;3.57;84.64
70900;BME280;67902;52.154;5.430;2023-03-05T03:35:59;102111.47;;;3.54;84.79
70900;BME280;67902;52.154;5.430;2023-03-05T03:38:25;102105.94;;;3.55;85.14
70900;BME280;67902;52.154;5.430;2023-03-05T03:40:52;102107.13;;;3.61;84.43
70900;BME280;67902;52.154;5.430;2023-03-05T03:43:18;102105.44;;;3.60;84.97
70900;BME280;67902;52.154;5.430;2023-03-05T03:45:45;102100.06;;;3.60;84.96
70900;BME280;67902;52.154;5.430;2023-03-05T03:48:11;102091.88;;;3.61;84.88
70900;BME280;67902;52.154;5.430;2023-03-05T03:50:39;102085.50;;;3.62;84.80
70900;BME280;67902;52.154;5.430;2023-03-05T03:53:06;102082.03;;;3.62;84.35
70900;BME280;67902;52.154;5.430;2023-03-05T03:55:33;102080.34;;;3.61;83.85
70900;BME280;67902;52.154;5.430;2023-03-05T03:58:00;102082.03;;;3.62;84.12
70900;BME280;67902;52.154;5.430;2023-03-05T04:00:26;102088.69;;;3.58;84.31
70900;BME280;67902;52.154;5.430;2023-03-05T04:02:52;102085.69;;;3.61;84.93
70900;BME280;67902;52.154;5.430;2023-03-05T04:05:19;102082.50;;;3.65;84.55
70900;BME280;67902;52.154;5.430;2023-03-05T04:07:45;102074.97;;;3.61;84.70
70900;BME280;67902;52.154;5.430;2023-03-05T04:10:12;102078.66;;;3.60;85.78
70900;BME280;67902;52.154;5.430;2023-03-05T04:12:38;102067.13;;;3.59;85.46
70900;BME280;67902;52.154;5.430;2023-03-05T04:15:09;102066.44;;;3.57;85.21
70900;BME280;67902;52.154;5.430;2023-03-05T04:17:35;102071.13;;;3.55;85.70
70900;BME280;67902;52.154;5.430;2023-03-05T04:20:03;102065.78;;;3.55;86.02
70900;BME280;67902;52.154;5.430;2023-03-05T04:22:30;102061.59;;;3.53;85.51
70900;BME280;67902;52.154;5.430;2023-03-05T04:24:57;102059.44;;;3.48;85.79
70900;BME280;67902;52.154;5.430;2023-03-05T04:27:24;102063.09;;;3.47;86.44
70900;BME280;67902;52.154;5.430;2023-03-05T04:29:50;102056.91;;;3.46;86.42
70900;BME280;67902;52.154;5.430;2023-03-05T04:32:16;102058.59;;;3.47;85.93
70900;BME280;67902;52.154;5.430;2023-03-05T04:34:48;102057.91;;;3.45;86.04
70900;BME280;67902;52.154;5.430;2023-03-05T04:37:14;102051.56;;;3.46;86.71
70900;BME280;67902;52.154;5.430;2023-03-05T04:39:41;102048.88;;;3.46;86.86
70900;BME280;67902;52.154;5.430;2023-03-05T04:42:09;102046.19;;;3.46;86.27
70900;BME280;67902;52.154;5.430;2023-03-05T04:44:36;102044.50;;;3.45;86.67
70900;BME280;67902;52.154;5.430;2023-03-05T04:47:02;102039.16;;;3.45;86.18
70900;BME280;67902;52.154;5.430;2023-03-05T04:49:29;102043.00;;;3.43;86.55
70900;BME280;67902;52.154;5.430;2023-03-05T04:51:55;102032.50;;;3.41;86.31
70900;BME280;67902;52.154;5.430;2023-03-05T04:54:23;102032.81;;;3.38;86.15
70900;BME280;67902;52.154;5.430;2023-03-05T04:56:49;102033.16;;;3.35;86.46
70900;BME280;67902;52.154;5.430;2023-03-05T04:59:16;102031.81;;;3.31;86.30
70900;BME280;67902;52.154;5.430;2023-03-05T05:01:45;102035.84;;;3.27;86.80
70900;BME280;67902;52.154;5.430;2023-03-05T05:04:11;102035.97;;;3.26;86.53
70900;BME280;67902;52.154;5.430;2023-03-05T05:06:38;102037.16;;;3.23;87.28
70900;BME280;67902;52.154;5.430;2023-03-05T05:09:04;102035.31;;;3.24;87.46
70900;BME280;67902;52.154;5.430;2023-03-05T05:11:31;102034.47;;;3.23;87.55
70900;BME280;67902;52.154;5.430;2023-03-05T05:13:57;102023.78;;;3.23;87.21
70900;BME280;67902;52.154;5.430;2023-03-05T05:16:23;102023.78;;;3.23;87.16
70900;BME280;67902;52.154;5.430;2023-03-05T05:18:50;102024.63;;;3.24;86.88
70900;BME280;67902;52.154;5.430;2023-03-05T05:21:17;102015.41;;;3.26;86.73
70900;BME280;67902;52.154;5.430;2023-03-05T05:23:45;102016.78;;;3.22;87.10
70900;BME280;67902;52.154;5.430;2023-03-05T05:26:12;102013.06;;;3.23;87.66
70900;BME280;67902;52.154;5.430;2023-03-05T05:28:40;102012.25;;;3.23;87.67
70900;BME280;67902;52.154;5.430;2023-03-05T05:31:13;102004.72;;;3.18;87.13
70900;BME280;67902;52.154;5.430;2023-03-05T05:33:40;102002.69;;;3.20;87.50
70900;BME280;67902;52.154;5.430;2023-03-05T05:36:08;102005.72;;;3.17;87.38
70900;BME280;67902;52.154;5.430;2023-03-05T05:38:36;101999.69;;;3.15;87.61
70900;BME280;67902;52.154;5.430;2023-03-05T05:41:08;102006.72;;;3.16;87.42
70900;BME280;67902;52.154;5.430;2023-03-05T05:43:35;102009.06;;;3.11;87.68
70900;BME280;67902;52.154;5.430;2023-03-05T05:46:03;101997.53;;;3.11;87.63
70900;BME280;67902;52.154;5.430;2023-03-05T05:48:32;102003.03;;;3.09;87.62
70900;BME280;67902;52.154;5.430;2023-03-05T05:50:58;101997.34;;;3.12;87.85
70900;BME280;67902;52.154;5.430;2023-03-05T05:53:25;102001.38;;;3.16;87.80
70900;BME280;67902;52.154;5.430;2023-03-05T05:55:51;101996.69;;;3.18;88.14
70900;BME280;67902;52.154;5.430;2023-03-05T05:58:18;101987.66;;;3.19;88.08
70900;BME280;67902;52.154;5.430;2023-03-05T06:00:44;101996.19;;;3.23;88.38
70900;BME280;67902;52.154;5.430;2023-03-05T06:03:10;101996.03;;;3.24;87.58
70900;BME280;67902;52.154;5.430;2023-03-05T06:05:37;101985.13;;;3.18;87.99
70900;BME280;67902;52.154;5.430;2023-03-05T06:08:03;101979.97;;;3.16;88.31
70900;BME280;67902;52.154;5.430;2023-03-05T06:10:30;101983.63;;;3.15;88.88
70900;BME280;67902;52.154;5.430;2023-03-05T06:12:56;101989.00;;;3.15;88.76
70900;BME280;67902;52.154;5.430;2023-03-05T06:15:23;101986.97;;;3.17;89.11
70900;BME280;67902;52.154;5.430;2023-03-05T06:17:49;101981.16;;;3.14;88.69
70900;BME280;67902;52.154;5.430;2023-03-05T06:20:15;101981.28;;;3.12;88.77
70900;BME280;67902;52.154;5.430;2023-03-05T06:22:42;101981.16;;;3.14;89.23
70900;BME280;67902;52.154;5.430;2023-03-05T06:25:11;101980.97;;;3.15;88.94
70900;BME280;67902;52.154;5.430;2023-03-05T06:27:38;101974.63;;;3.16;89.35
70900;BME280;67902;52.154;5.430;2023-03-05T06:30:05;101979.63;;;3.19;89.22
70900;BME280;67902;52.154;5.430;2023-03-05T06:32:32;101979.97;;;3.16;89.19
70900;BME280;67902;52.154;5.430;2023-03-05T06:34:58;101975.94;;;3.20;89.13
70900;BME280;67902;52.154;5.430;2023-03-05T06:37:25;101977.81;;;3.20;88.64
70900;BME280;67902;52.154;5.430;2023-03-05T06:39:51;101975.94;;;3.20;89.03
70900;BME280;67902;52.154;5.430;2023-03-05T06:42:17;101972.44;;;3.20;88.81
70900;BME280;67902;52.154;5.430;2023-03-05T06:44:45;101969.44;;;3.23;89.55
70900;BME280;67902;52.154;5.430;2023-03-05T06:47:13;101980.97;;;3.23;89.34
70900;BME280;67902;52.154;5.430;2023-03-05T06:49:40;101981.97;;;3.22;89.16
70900;BME280;67902;52.154;5.430;2023-03-05T06:52:06;101976.94;;;3.27;89.07
70900;BME280;67902;52.154;5.430;2023-03-05T06:54:35;101981.97;;;3.30;89.38
70900;BME280;67902;52.154;5.430;2023-03-05T06:57:01;101983.16;;;3.28;89.14
70900;BME280;67902;52.154;5.430;2023-03-05T06:59:28;101974.09;;;3.29;88.59
70900;BME280;67902;52.154;5.430;2023-03-05T07:01:54;101977.94;;;3.34;88.60
70900;BME280;67902;52.154;5.430;2023-03-05T07:04:20;101976.94;;;3.35;88.68
70900;BME280;67902;52.154;5.430;2023-03-05T07:06:49;101973.75;;;3.40;88.67
70900;BME280;67902;52.154;5.430;2023-03-05T07:09:15;101974.25;;;3.43;89.16
70900;BME280;67902;52.154;5.430;2023-03-05T07:11:44;101970.91;;;3.49;88.75
70900;BME280;67902;52.154;5.430;2023-03-05T07:14:11;101974.56;;;3.57;88.33
70900;BME280;67902;52.154;5.430;2023-03-05T07:16:37;101972.53;;;3.67;88.80
70900;BME280;67902;52.154;5.430;2023-03-05T07:19:04;101970.16;;;3.80;88.44
70900;BME280;67902;52.154;5.430;2023-03-05T07:21:33;101961.94;;;3.89;87.86
70900;BME280;67902;52.154;5.430;2023-03-05T07:24:04;101969.75;;;3.99;88.27
70900;BME280;67902;52.154;5.430;2023-03-05T07:26:31;101974.25;;;4.06;87.71
70900;BME280;67902;52.154;5.430;2023-03-05T07:28:59;101966.38;;;4.05;87.10
70900;BME280;67902;52.154;5.430;2023-03-05T07:31:26;101965.72;;;4.03;87.87
70900;BME280;67902;52.154;5.430;2023-03-05T07:33:57;101973.41;;;4.06;87.46
70900;BME280;67902;52.154;5.430;2023-03-05T07:36:24;101971.03;;;4.11;88.06
70900;BME280;67902;52.154;5.430;2023-03-05T07:38:50;101967.38;;;4.12;87.42
70900;BME280;67902;52.154;5.430;2023-03-05T07:41:18;101972.72;;;4.12;87.28
70900;BME280;67902;52.154;5.430;2023-03-05T07:43:46;101970.69;;;4.14;87.27
70900;BME280;67902;52.154;5.430;2023-03-05T07:46:15;101971.00;;;4.19;87.50
70900;BME280;67902;52.154;5.430;2023-03-05T07:48:42;101968.31;;;4.19;87.02
70900;BME280;67902;52.154;5.430;2023-03-05T07:51:17;101969.34;;;4.18;86.88
70900;BME280;67902;52.154;5.430;2023-03-05T07:53:45;101969.16;;;4.20;86.40
70900;BME280;67902;52.154;5.430;2023-03-05T07:56:13;101970.25;;;4.33;86.54
70900;BME280;67902;52.154;5.430;2023-03-05T07:58:39;101966.50;;;4.50;86.48
70900;BME280;67902;52.154;5.430;2023-03-05T08:01:10;101961.06;;;4.58;86.18
70900;BME280;67902;52.154;5.430;2023-03-05T08:03:40;101960.56;;;4.63;85.59
70900;BME280;67902;52.154;5.430;2023-03-05T08:06:07;101950.63;;;4.63;85.42
70900;BME280;67902;52.154;5.430;2023-03-05T08:08:33;101954.44;;;4.69;85.58
70900;BME280;67902;52.154;5.430;2023-03-05T08:11:08;101947.78;;;4.65;85.20
70900;BME280;67902;52.154;5.430;2023-03-05T08:13:36;101945.16;;;4.57;84.88
70900;BME280;67902;52.154;5.430;2023-03-05T08:16:06;101950.28;;;4.66;84.91
70900;BME280;67902;52.154;5.430;2023-03-05T08:18:33;101945.63;;;4.60;84.53
70900;BME280;67902;52.154;5.430;2023-03-05T08:21:00;101943.13;;;4.59;85.06
70900;BME280;67902;52.154;5.430;2023-03-05T08:23:27;101953.44;;;4.70;84.77
70900;BME280;67902;52.154;5.430;2023-03-05T08:25:53;101944.50;;;4.78;85.13
70900;BME280;67902;52.154;5.430;2023-03-05T08:28:20;101938.72;;;4.89;84.66
70900;BME280;67902;52.154;5.430;2023-03-05T08:30:47;101932.25;;;5.20;83.87
70900;BME280;67902;52.154;5.430;2023-03-05T08:33:15;101938.47;;;5.36;82.70
70900;BME280;67902;52.154;5.430;2023-03-05T08:35:44;101932.94;;;5.52;82.89
70900;BME280;67902;52.154;5.430;2023-03-05T08:38:11;101929.53;;;5.72;82.19
70900;BME280;67902;52.154;5.430;2023-03-05T08:40:37;101931.09;;;5.96;81.58
70900;BME280;67902;52.154;5.430;2023-03-05T08:43:04;101931.94;;;5.97;80.71
70900;BME280;67902;52.154;5.430;2023-03-05T08:45:32;101927.09;;;6.07;80.98
70900;BME280;67902;52.154;5.430;2023-03-05T08:47:58;101924.69;;;6.12;80.66
70900;BME280;67902;52.154;5.430;2023-03-05T08:50:25;101910.69;;;6.02;79.66
70900;BME280;67902;52.154;5.430;2023-03-05T08:52:51;101909.44;;;5.98;80.30
70900;BME280;67902;52.154;5.430;2023-03-05T08:55:18;101912.66;;;5.93;80.57
70900;BME280;67902;52.154;5.430;2023-03-05T08:57:44;101916.28;;;5.86;80.30
70900;BME280;67902;52.154;5.430;2023-03-05T09:00:11;101914.94;;;5.81;79.95
70900;BME280;67902;52.154;5.430;2023-03-05T09:02:39;101912.47;;;5.80;79.71
70900;BME280;67902;52.154;5.430;2023-03-05T09:05:06;101909.50;;;5.75;79.86
70900;BME280;67902;52.154;5.430;2023-03-05T09:07:32;101914.31;;;5.79;80.44
70900;BME280;67902;52.154;5.430;2023-03-05T09:09:59;101902.47;;;5.89;79.99
70900;BME280;67902;52.154;5.430;2023-03-05T09:12:25;101915.91;;;5.89;80.62
70900;BME280;67902;52.154;5.430;2023-03-05T09:14:53;101912.38;;;6.03;81.27
70900;BME280;67902;52.154;5.430;2023-03-05T09:17:23;101910.31;;;6.05;80.12
70900;BME280;67902;52.154;5.430;2023-03-05T09:19:49;101904.84;;;6.13;80.49
70900;BME280;67902;52.154;5.430;2023-03-05T09:22:16;101912.66;;;5.93;79.17
70900;BME280;67902;52.154;5.430;2023-03-05T09:24:42;101908.38;;;5.84;80.61
70900;BME280;67902;52.154;5.430;2023-03-05T09:27:09;101903.59;;;5.94;80.74
70900;BME280;67902;52.154;5.430;2023-03-05T09:29:35;101899.41;;;5.92;79.70
70900;BME280;67902;52.154;5.430;2023-03-05T09:32:02;101906.28;;;5.94;79.84
70900;BME280;67902;52.154;5.430;2023-03-05T09:34:29;101896.25;;;6.03;79.69
70900;BME280;67902;52.154;5.430;2023-03-05T09:36:55;101897.72;;;6.05;79.03
70900;BME280;67902;52.154;5.430;2023-03-05T09:39:21;101890.56;;;6.12;79.26
70900;BME280;67902;52.154;5.430;2023-03-05T09:42:14;101893.56;;;6.38;79.17
70900;BME280;67902;52.154;5.430;2023-03-05T09:47:45;101893.84;;;6.29;77.88
70900;BME280;67902;52.154;5.430;2023-03-05T09:53:20;101891.06;;;6.58;78.58
70900;BME280;67902;52.154;5.430;2023-03-05T09:55:54;101886.72;;;6.78;77.71
70900;BME280;67902;52.154;5.430;2023-03-05T10:01:00;101875.94;;;7.34;76.76
70900;BME280;67902;52.154;5.430;2023-03-05T10:09:26;101869.63;;;6.92;75.95
70900;BME280;67902;52.154;5.430;2023-03-05T10:12:02;101867.28;;;7.11;75.37
70900;BME280;67902;52.154;5.430;2023-03-05T10:14:37;101862.19;;;7.22;74.44
70900;BME280;67902;52.154;5.430;2023-03-05T10:17:21;101861.47;;;7.35;74.11
70900;BME280;67902;52.154;5.430;2023-03-05T10:28:34;101851.84;;;7.60;71.54
70900;BME280;67902;52.154;5.430;2023-03-05T10:31:19;101845.94;;;7.84;69.80
70900;BME280;67902;52.154;5.430;2023-03-05T10:37:01;101846.31;;;8.29;68.59
70900;BME280;67902;52.154;5.430;2023-03-05T10:42:41;101832.88;;;8.68;66.83
70900;BME280;67902;52.154;5.430;2023-03-05T10:45:17;101832.06;;;9.00;66.16
70900;BME280;67902;52.154;5.430;2023-03-05T10:47:51;101834.91;;;9.18;65.71
70900;BME280;67902;52.154;5.430;2023-03-05T10:50:22;101823.28;;;9.24;63.75
70900;BME280;67902;52.154;5.430;2023-03-05T10:55:35;101821.41;;;9.18;64.49
70900;BME280;67902;52.154;5.430;2023-03-05T10:58:10;101815.16;;;9.24;64.72
70900;BME280;67902;52.154;5.430;2023-03-05T11:00:38;101808.53;;;9.14;63.71
70900;BME280;67902;52.154;5.430;2023-03-05T11:03:10;101810.38;;;9.26;63.04
70900;BME280;67902;52.154;5.430;2023-03-05T11:05:44;101799.56;;;9.26;63.57
70900;BME280;67902;52.154;5.430;2023-03-05T11:08:30;101799.81;;;9.12;63.35
70900;BME280;67902;52.154;5.430;2023-03-05T11:11:18;101803.78;;;9.09;63.25
70900;BME280;67902;52.154;5.430;2023-03-05T11:13:57;101792.50;;;9.25;64.56
70900;BME280;67902;52.154;5.430;2023-03-05T11:16:27;101792.84;;;10.31;59.71
70900;BME280;67902;52.154;5.430;2023-03-05T11:21:42;101780.97;;;10.38;59.78
70900;BME280;67902;52.154;5.430;2023-03-05T11:24:12;101781.78;;;10.01;60.48
70900;BME280;67902;52.154;5.430;2023-03-05T11:26:50;101769.66;;;10.41;59.11
70900;BME280;67902;52.154;5.430;2023-03-05T11:29:29;101763.72;;;10.33;58.49
70900;BME280;67902;52.154;5.430;2023-03-05T11:32:15;101761.75;;;10.15;59.19
70900;BME280;67902;52.154;5.430;2023-03-05T11:34:42;101756.84;;;10.30;58.41
70900;BME280;67902;52.154;5.430;2023-03-05T11:37:23;101754.28;;;10.04;57.77
70900;BME280;67902;52.154;5.430;2023-03-05T11:40:19;101750.97;;;10.02;58.62
70900;BME280;67902;52.154;5.430;2023-03-05T11:42:54;101748.00;;;10.41;57.90
70900;BME280;67902;52.154;5.430;2023-03-05T11:45:21;101743.94;;;11.18;55.07
70900;BME280;67902;52.154;5.430;2023-03-05T11:47:51;101743.78;;;11.13;53.93
70900;BME280;67902;52.154;5.430;2023-03-05T11:50:20;101736.06;;;10.92;55.07
70900;BME280;67902;52.154;5.430;2023-03-05T11:52:54;101748.78;;;10.73;54.88
70900;BME280;67902;52.154;5.430;2023-03-05T11:55:44;101739.25;;;11.07;54.46
70900;BME280;67902;52.154;5.430;2023-03-05T12:00:44;101728.22;;;11.56;50.93
70900;BME280;67902;52.154;5.430;2023-03-05T12:03:15;101722.84;;;11.86;51.08
70900;BME280;67902;52.154;5.430;2023-03-05T12:05:45;101716.38;;;11.99;50.27
70900;BME280;67902;52.154;5.430;2023-03-05T12:08:17;101712.81;;;12.28;49.49
70900;BME280;67902;52.154;5.430;2023-03-05T12:10:46;101719.63;;;11.59;50.53
70900;BME280;67902;52.154;5.430;2023-03-05T12:13:36;101704.63;;;11.27;52.00
70900;BME280;67902;52.154;5.430;2023-03-05T12:17:00;101706.56;;;10.84;52.65
70900;BME280;67902;52.154;5.430;2023-03-05T12:21:48;101700.63;;;10.32;53.88
70900;BME280;67902;52.154;5.430;2023-03-05T12:47:42;101656.06;;;8.97;56.22
70900;BME280;67902;52.154;5.430;2023-03-05T12:53:12;101646.69;;;8.99;57.10
70900;BME280;67902;52.154;5.430;2023-03-05T12:55:53;101637.69;;;9.50;57.22
70900;BME280;67902;52.154;5.430;2023-03-05T12:58:48;101631.97;;;10.45;56.02
70900;BME280;67902;52.154;5.430;2023-03-05T13:03:56;101624.75;;;10.14;54.71
70900;BME280;67902;52.154;5.430;2023-03-05T13:09:24;101614.41;;;9.80;54.19
70900;BME280;67902;52.154;5.430;2023-03-05T13:11:53;101611.25;;;9.58;55.61
70900;BME280;67902;52.154;5.430;2023-03-05T13:14:34;101611.28;;;9.52;56.33
70900;BME280;67902;52.154;5.430;2023-03-05T13:17:33;101599.78;;;9.31;56.50
70900;BME280;67902;52.154;5.430;2023-03-05T13:20:03;101602.88;;;8.91;58.09
70900;BME280;67902;52.154;5.430;2023-03-05T13:22:47;101597.28;;;8.92;56.42
70900;BME280;67902;52.154;5.430;2023-03-05T13:25:16;101594.34;;;9.00;56.51
70900;BME280;67902;52.154;5.430;2023-03-05T13:27:45;101596.03;;;8.88;56.90
70900;BME280;67902;52.154;5.430;2023-03-05T13:30:22;101591.03;;;8.92;56.44
70900;BME280;67902;52.154;5.430;2023-03-05T13:32:51;101581.69;;;8.94;56.51
70900;BME280;67902;52.154;5.430;2023-03-05T13:35:19;101575.56;;;9.12;58.03
70900;BME280;67902;52.154;5.430;2023-03-05T13:37:46;101577.44;;;9.11;57.30
70900;BME280;67902;52.154;5.430;2023-03-05T13:40:25;101572.66;;;9.07;58.37
70900;BME280;67902;52.154;5.430;2023-03-05T13:42:53;101564.38;;;9.02;57.74
70900;BME280;67902;52.154;5.430;2023-03-05T13:47:58;101553.66;;;8.89;56.26
70900;BME280;67902;52.154;5.430;2023-03-05T13:50:30;101563.69;;;8.75;57.33
70900;BME280;67902;52.154;5.430;2023-03-05T13:55:45;101554.25;;;8.91;57.24
70900;BME280;67902;52.154;5.430;2023-03-05T13:58:45;101556.09;;;8.97;56.50
70900;BME280;67902;52.154;5.430;2023-03-05T14:01:33;101548.25;;;8.89;57.25
70900;BME280;67902;52.154;5.430;2023-03-05T14:06:48;101553.56;;;8.64;57.12
70900;BME280;67902;52.154;5.430;2023-03-05T14:09:19;101536.78;;;8.55;58.65
70900;BME280;67902;52.154;5.430;2023-03-05T14:12:04;101546.34;;;8.51;58.93
70900;BME280;67902;52.154;5.430;2023-03-05T14:14:36;101535.53;;;8.58;58.71
70900;BME280;67902;52.154;5.430;2023-03-05T14:20:29;101536.19;;;8.47;58.64
70900;BME280;67902;52.154;5.430;2023-03-05T14:22:59;101530.22;;;8.32;59.21
70900;BME280;67902;52.154;5.430;2023-03-05T14:25:34;101518.78;;;8.23;59.62
70900;BME280;67902;52.154;5.430;2023-03-05T14:30:47;101515.72;;;8.20;59.88
70900;BME280;67902;52.154;5.430;2023-03-05T14:33:20;101514.03;;;8.18;59.62
70900;BME280;67902;52.154;5.430;2023-03-05T14:35:49;101502.22;;;8.06;60.25
70900;BME280;67902;52.154;5.430;2023-03-05T14:38:21;101510.34;;;7.93;60.71
70900;BME280;67902;52.154;5.430;2023-03-05T14:40:48;101512.44;;;7.85;61.04